Terminal Aerodrome Forecast
Issued by NWS

Home | Current Version | Previous Version | Text Only | Print | Product List | Glossary On
Versions: 1 2 3 4 5 6 7 8 9 10 11 12 13 14 15
000
FTUS45 KABQ 222335
TAFROW
TAF
KROW 222335Z 2300/2324 16009KT P6SM VCSH BKN120
      TEMPO 2300/2302 VRB30G45KT -TSRA BKN090CB
     FM230200 18010KT P6SM BKN120
     FM231100 35009KT P6SM FEW120
     FM231800 02012KT P6SM SCT120
     FM232100 02020G30KT P6SM VCTS BKN080CB=

USA.gov is the U.S. government's official web portal to all federal, state and local government web resources and services.